createdAt,value
2018-03-11T00:02:22.075Z,3.44
2018-03-11T00:04:49.679Z,3.25
2018-03-11T00:07:17.396Z,3.20
2018-03-11T00:09:45.352Z,3.10
2018-03-11T00:12:13.024Z,3.09
2018-03-11T00:14:40.685Z,3.11
2018-03-11T00:17:08.281Z,3.16
2018-03-11T00:19:36.010Z,2.94
2018-03-11T00:22:03.635Z,2.98
2018-03-11T00:24:31.215Z,2.90
2018-03-11T00:26:58.859Z,2.97
2018-03-11T00:29:26.436Z,2.94
2018-03-11T00:31:54.024Z,2.91
2018-03-11T00:34:21.719Z,2.82
2018-03-11T00:36:49.314Z,2.77
2018-03-11T00:39:17.141Z,2.58
2018-03-11T00:41:44.798Z,2.55
2018-03-11T00:44:12.393Z,2.58
2018-03-11T00:46:40.063Z,2.53
2018-03-11T00:49:08.368Z,2.47
2018-03-11T00:51:35.951Z,2.47
2018-03-11T00:54:05.411Z,2.51
2018-03-11T00:56:33.044Z,2.60
2018-03-11T00:59:00.696Z,2.50
2018-03-11T01:01:28.406Z,2.43
2018-03-11T01:03:56.049Z,2.38
2018-03-11T01:06:23.681Z,2.26
2018-03-11T01:08:51.340Z,2.26
2018-03-11T01:11:19.410Z,2.31
2018-03-11T01:13:47.049Z,2.32
2018-03-11T01:16:14.856Z,2.29
2018-03-11T01:18:42.555Z,2.20
2018-03-11T01:21:10.568Z,2.23
2018-03-11T01:23:38.162Z,2.36
2018-03-11T01:26:05.813Z,2.38
2018-03-11T01:28:33.477Z,1.96
2018-03-11T01:31:01.091Z,2.04
2018-03-11T01:33:28.797Z,2.12
2018-03-11T01:35:56.394Z,2.17
2018-03-11T01:38:24.083Z,2.10
2018-03-11T01:40:51.720Z,2.04
2018-03-11T01:43:20.026Z,2.13
2018-03-11T01:45:47.881Z,2.04
2018-03-11T01:48:15.521Z,2.15
2018-03-11T01:50:43.822Z,2.04
2018-03-11T01:53:11.761Z,2.08
2018-03-11T01:55:39.410Z,1.88
2018-03-11T01:58:07.144Z,1.79
2018-03-11T02:00:34.832Z,2.08
2018-03-11T02:03:03.164Z,1.98
2018-03-11T02:05:30.739Z,1.92
2018-03-11T02:07:58.362Z,1.89
2018-03-11T02:10:26.062Z,1.91
2018-03-11T02:12:54.984Z,1.84
2018-03-11T02:15:22.658Z,1.82
2018-03-11T02:17:50.314Z,1.82
2018-03-11T02:20:17.969Z,1.71
2018-03-11T02:22:45.577Z,1.68
2018-03-11T02:25:13.227Z,1.78
2018-03-11T02:27:40.864Z,1.72
2018-03-11T02:30:08.454Z,1.71
2018-03-11T02:32:36.093Z,1.69
2018-03-11T02:35:03.684Z,1.52
2018-03-11T02:37:31.305Z,1.46
2018-03-11T02:39:58.923Z,1.47
2018-03-11T02:42:26.576Z,1.49
2018-03-11T02:44:54.254Z,1.53
2018-03-11T02:47:21.900Z,1.59
2018-03-11T02:49:49.499Z,1.73
2018-03-11T02:52:17.138Z,1.75
2018-03-11T02:54:44.773Z,1.66
2018-03-11T02:57:12.362Z,1.61
2018-03-11T02:59:40.174Z,1.30
2018-03-11T03:02:07.849Z,1.39
2018-03-11T03:04:35.564Z,1.45
2018-03-11T03:07:03.210Z,1.51
2018-03-11T03:09:30.811Z,1.48
2018-03-11T03:11:58.462Z,1.54
2018-03-11T03:14:26.158Z,1.57
2018-03-11T03:16:53.763Z,1.46
2018-03-11T03:19:21.356Z,1.52
2018-03-11T03:21:48.998Z,1.40
2018-03-11T03:24:16.615Z,1.52
2018-03-11T03:26:44.384Z,1.35
2018-03-11T03:29:12.045Z,1.34
2018-03-11T03:31:39.776Z,1.40
2018-03-11T03:34:07.516Z,1.34
2018-03-11T03:36:35.106Z,1.21
2018-03-11T03:39:02.778Z,1.13
2018-03-11T03:41:30.358Z,1.12
2018-03-11T03:43:57.999Z,1.05
2018-03-11T03:46:25.577Z,0.90
2018-03-11T03:48:53.254Z,0.91
2018-03-11T03:51:20.889Z,1.05
2018-03-11T03:53:48.455Z,1.04
2018-03-11T03:56:16.116Z,1.12
2018-03-11T03:58:43.768Z,1.16
2018-03-11T04:01:11.359Z,1.14
2018-03-11T04:03:39.730Z,1.07
2018-03-11T04:06:07.344Z,1.10
2018-03-11T04:08:34.920Z,0.91
2018-03-11T04:11:02.537Z,0.76
2018-03-11T04:13:30.190Z,0.95
2018-03-11T04:15:57.896Z,0.89
2018-03-11T04:18:25.528Z,0.94
2018-03-11T04:20:53.171Z,0.84
2018-03-11T04:23:21.037Z,0.76
2018-03-11T04:25:48.636Z,0.75
2018-03-11T04:28:16.561Z,0.68
2018-03-11T04:30:44.191Z,0.77
2018-03-11T04:33:12.352Z,0.76
2018-03-11T04:35:40.082Z,0.77
2018-03-11T04:38:07.701Z,0.70
2018-03-11T04:40:35.367Z,0.80
2018-03-11T04:43:02.956Z,0.51
2018-03-11T04:45:30.624Z,0.61
2018-03-11T04:47:58.226Z,0.61
2018-03-11T04:50:25.887Z,0.58
2018-03-11T04:52:53.474Z,0.65
2018-03-11T04:55:21.210Z,0.56
2018-03-11T04:57:48.836Z,0.60
2018-03-11T05:00:16.468Z,0.71
2018-03-11T05:02:44.113Z,0.59
2018-03-11T05:05:11.738Z,0.71
2018-03-11T05:07:39.434Z,0.74
2018-03-11T05:10:07.137Z,0.71
2018-03-11T05:12:34.803Z,0.82
2018-03-11T05:15:02.395Z,0.88
2018-03-11T05:17:30.008Z,0.70
2018-03-11T05:19:57.646Z,0.60
2018-03-11T05:22:25.236Z,0.57
2018-03-11T05:24:52.832Z,0.64
2018-03-11T05:27:20.449Z,0.75
2018-03-11T05:29:48.092Z,0.70
2018-03-11T05:32:15.745Z,0.58
2018-03-11T05:34:43.372Z,0.64
2018-03-11T05:37:11.080Z,0.63
2018-03-11T05:39:38.679Z,0.51
2018-03-11T05:42:06.385Z,0.40
2018-03-11T05:44:34.981Z,0.48
2018-03-11T05:47:02.685Z,0.57
2018-03-11T05:49:30.314Z,0.59
2018-03-11T05:51:57.939Z,0.68
2018-03-11T05:54:25.928Z,0.61
2018-03-11T05:56:53.531Z,0.91
2018-03-11T05:59:21.151Z,2.78
2018-03-11T06:01:48.859Z,4.25
2018-03-11T06:04:16.465Z,4.58
2018-03-11T06:06:44.046Z,5.80
2018-03-11T06:09:11.695Z,4.69
2018-03-11T06:11:39.678Z,2.70
2018-03-11T06:14:07.535Z,2.17
2018-03-11T06:16:35.183Z,2.09
2018-03-11T06:19:02.840Z,1.91
2018-03-11T06:21:31.111Z,1.60
2018-03-11T06:23:58.769Z,1.63
2018-03-11T06:26:26.457Z,1.67
2018-03-11T06:28:54.137Z,2.08
2018-03-11T06:31:21.773Z,2.51
2018-03-11T06:33:49.677Z,2.68
2018-03-11T06:36:17.407Z,2.28
2018-03-11T06:38:45.736Z,2.72
2018-03-11T06:41:13.974Z,2.81
2018-03-11T06:43:41.801Z,2.78
2018-03-11T06:46:09.596Z,3.06
2018-03-11T06:48:37.287Z,3.28
2018-03-11T06:51:05.009Z,3.46
2018-03-11T06:53:32.664Z,3.24
2018-03-11T06:56:01.253Z,3.17
2018-03-11T06:58:28.847Z,3.17
2018-03-11T07:00:56.537Z,3.51
2018-03-11T07:03:24.228Z,3.98
2018-03-11T07:05:51.847Z,4.45
2018-03-11T07:08:19.486Z,5.08
2018-03-11T07:10:47.687Z,5.40
2018-03-11T07:13:15.722Z,5.48
2018-03-11T07:15:43.344Z,5.51
2018-03-11T07:18:11.278Z,4.79
2018-03-11T07:20:39.021Z,4.38
2018-03-11T07:23:06.882Z,4.62
2018-03-11T07:25:34.597Z,4.81
2018-03-11T07:28:02.416Z,4.68
2018-03-11T07:30:30.080Z,5.09
2018-03-11T07:32:58.537Z,4.47
2018-03-11T07:35:27.880Z,5.14
2018-03-11T07:37:55.737Z,5.30
2018-03-11T07:40:23.384Z,6.23
2018-03-11T07:42:51.016Z,6.88
2018-03-11T07:45:18.894Z,5.59
2018-03-11T07:47:46.671Z,6.64
2018-03-11T07:50:14.654Z,7.66
2018-03-11T07:52:42.259Z,8.07
2018-03-11T07:55:09.881Z,7.77
2018-03-11T07:57:37.486Z,6.80
2018-03-11T08:00:05.122Z,6.86
2018-03-11T08:02:32.704Z,7.49
2018-03-11T08:05:00.327Z,8.00
2018-03-11T08:07:28.293Z,8.51
2018-03-11T08:09:55.953Z,8.84
2018-03-11T08:12:23.544Z,8.25
2018-03-11T08:14:51.264Z,7.59
2018-03-11T08:17:19.676Z,7.48
2018-03-11T08:19:47.419Z,7.92
2018-03-11T08:22:15.082Z,7.79
2018-03-11T08:24:42.956Z,8.21
2018-03-11T08:27:10.616Z,8.30
2018-03-11T08:29:38.895Z,8.60
2018-03-11T08:32:06.573Z,8.71
2018-03-11T08:34:34.427Z,8.67
2018-03-11T08:37:02.068Z,8.75
2018-03-11T08:39:29.948Z,8.85
2018-03-11T08:41:58.755Z,8.90
2018-03-11T08:44:26.504Z,8.85
2018-03-11T08:46:55.395Z,9.01
2018-03-11T08:49:23.033Z,9.15
2018-03-11T08:51:50.700Z,9.10
2018-03-11T08:54:18.577Z,9.01
2018-03-11T08:56:48.534Z,8.97
2018-03-11T08:59:16.971Z,8.74
2018-03-11T09:01:45.161Z,8.70
2018-03-11T09:04:13.818Z,9.06
2018-03-11T09:06:41.508Z,8.82
2018-03-11T09:09:09.159Z,8.30
2018-03-11T09:11:37.016Z,8.66
2018-03-11T09:14:05.208Z,8.97
2018-03-11T09:16:33.176Z,9.14
2018-03-11T09:19:00.940Z,9.24
2018-03-11T09:21:28.585Z,8.62
2018-03-11T09:23:56.715Z,8.82
2018-03-11T09:26:24.448Z,9.02
2018-03-11T09:28:52.531Z,9.51
2018-03-11T09:31:20.182Z,10.39
2018-03-11T09:33:47.952Z,10.34
2018-03-11T09:36:15.643Z,10.37
2018-03-11T09:38:43.240Z,9.95
2018-03-11T09:41:10.927Z,8.96
2018-03-11T09:43:38.684Z,9.44
2018-03-11T09:46:06.524Z,9.54
2018-03-11T09:48:34.801Z,10.10
2018-03-11T09:51:02.509Z,10.30
2018-03-11T09:53:30.565Z,9.89
2018-03-11T09:55:58.248Z,9.57
2018-03-11T09:58:26.062Z,9.69
2018-03-11T10:00:54.139Z,9.99
2018-03-11T10:03:21.939Z,10.39
2018-03-11T10:05:49.873Z,10.74
2018-03-11T10:08:18.816Z,10.87
2018-03-11T10:10:46.565Z,11.12
2018-03-11T10:13:15.156Z,11.12
2018-03-11T10:15:43.132Z,11.25
2018-03-11T10:18:11.924Z,11.31
2018-03-11T10:20:39.773Z,10.97
2018-03-11T10:23:08.447Z,10.71
2018-03-11T10:25:36.496Z,10.35
2018-03-11T10:28:06.005Z,10.33
2018-03-11T10:30:33.618Z,9.87
2018-03-11T10:33:02.183Z,10.03
2018-03-11T10:35:30.264Z,10.14
2018-03-11T10:37:58.007Z,10.42
2018-03-11T10:40:25.605Z,10.18
2018-03-11T10:42:54.080Z,9.88
2018-03-11T10:45:21.936Z,10.02
2018-03-11T10:47:49.587Z,9.86
2018-03-11T10:50:17.309Z,10.38
2018-03-11T10:52:45.325Z,10.65
2018-03-11T10:55:12.990Z,10.22
2018-03-11T10:57:40.984Z,10.63
2018-03-11T11:00:09.232Z,10.66
2018-03-11T11:02:37.103Z,10.81
2018-03-11T11:05:04.953Z,11.02
2018-03-11T11:07:32.776Z,10.98
2018-03-11T11:10:00.845Z,11.08
2018-03-11T11:12:28.567Z,11.07
2018-03-11T11:14:56.456Z,11.32
2018-03-11T11:17:24.201Z,11.34
2018-03-11T11:19:52.708Z,11.41
2018-03-11T11:22:20.411Z,11.35
2018-03-11T11:24:48.823Z,11.08
2018-03-11T11:27:16.802Z,10.49
2018-03-11T11:29:44.563Z,10.88
2018-03-11T11:32:12.844Z,10.98
2018-03-11T11:34:40.886Z,11.26
2018-03-11T11:37:08.761Z,11.48
2018-03-11T11:39:37.050Z,11.42
2018-03-11T11:42:05.738Z,11.40
2018-03-11T11:44:33.619Z,11.29
2018-03-11T11:47:01.267Z,10.95
2018-03-11T11:49:29.143Z,11.26
2018-03-11T11:51:57.413Z,11.33
2018-03-11T11:54:25.410Z,11.59
2018-03-11T11:56:53.300Z,11.80
2018-03-11T11:59:21.292Z,11.82
2018-03-11T12:01:49.440Z,11.76
2018-03-11T12:04:17.746Z,11.72
2018-03-11T12:06:45.420Z,11.74
2018-03-11T12:11:46.885Z,11.21
2018-03-11T12:14:15.308Z,11.21
2018-03-11T12:16:43.373Z,11.56
2018-03-11T12:19:11.009Z,11.66
2018-03-11T12:21:38.780Z,11.70
2018-03-11T12:24:06.518Z,11.70
2018-03-11T12:26:34.623Z,11.41
2018-03-11T12:29:02.223Z,11.28
2018-03-11T12:31:30.041Z,11.19
2018-03-11T12:33:57.930Z,11.43
2018-03-11T12:36:26.050Z,11.46
2018-03-11T12:38:54.054Z,11.46
2018-03-11T12:41:21.725Z,11.70
2018-03-11T12:43:49.628Z,11.90
2018-03-11T12:46:17.343Z,12.09
2018-03-11T12:48:46.241Z,12.40
2018-03-11T12:51:14.003Z,12.41
2018-03-11T12:53:42.920Z,12.51
2018-03-11T12:56:10.741Z,12.68
2018-03-11T12:58:38.617Z,12.61
2018-03-11T13:01:06.250Z,12.51
2018-03-11T13:03:34.045Z,12.47
2018-03-11T13:06:01.730Z,12.56
2018-03-11T13:08:29.748Z,12.81
2018-03-11T13:10:58.074Z,12.98
2018-03-11T13:13:25.819Z,13.55
2018-03-11T13:15:54.770Z,14.21
2018-03-11T13:18:22.799Z,13.90
2018-03-11T13:21:09.531Z,13.31
2018-03-11T13:23:37.170Z,13.59
2018-03-11T13:26:05.492Z,13.99
2018-03-11T13:28:44.841Z,13.75
2018-03-11T13:31:12.727Z,13.94
2018-03-11T13:33:52.210Z,13.75
2018-03-11T13:36:19.905Z,13.71
2018-03-11T13:38:59.237Z,14.00
2018-03-11T13:41:26.953Z,14.44
2018-03-11T13:43:54.719Z,14.30
2018-03-11T13:46:33.957Z,13.90
2018-03-11T13:49:01.792Z,13.27
2018-03-11T13:51:41.365Z,13.27
2018-03-11T13:54:09.362Z,13.39
2018-03-11T13:56:37.395Z,13.20
2018-03-11T13:59:05.750Z,13.41
2018-03-11T14:01:33.442Z,13.65
2018-03-11T14:04:01.508Z,13.62
2018-03-11T14:06:29.347Z,13.40
2018-03-11T14:08:57.152Z,13.12
2018-03-11T14:11:24.904Z,12.94
2018-03-11T14:13:52.797Z,12.50
2018-03-11T14:16:20.550Z,12.16
2018-03-11T14:18:48.358Z,12.05
2018-03-11T14:21:17.396Z,12.19
2018-03-11T14:23:45.031Z,12.43
2018-03-11T14:26:13.774Z,12.50
2018-03-11T14:28:41.849Z,12.56
2018-03-11T14:31:09.832Z,11.98
2018-03-11T14:33:37.557Z,11.72
2018-03-11T14:36:05.502Z,11.81
2018-03-11T14:38:33.293Z,11.68
2018-03-11T14:41:01.518Z,11.51
2018-03-11T14:43:30.890Z,11.53
2018-03-11T14:45:59.001Z,11.50
2018-03-11T14:48:27.192Z,11.27
2018-03-11T14:50:55.082Z,10.98
2018-03-11T14:53:23.983Z,10.90
2018-03-11T14:55:51.967Z,11.07
2018-03-11T14:58:19.930Z,10.64
2018-03-11T15:00:47.912Z,10.31
2018-03-11T15:03:15.636Z,10.62
2018-03-11T15:05:43.463Z,10.55
2018-03-11T15:08:11.285Z,10.42
2018-03-11T15:10:39.322Z,10.33
2018-03-11T15:13:07.131Z,10.35
2018-03-11T15:15:35.578Z,10.20
2018-03-11T15:18:03.451Z,10.12
2018-03-11T15:20:31.537Z,9.91
2018-03-11T15:23:00.013Z,9.79
2018-03-11T15:25:27.931Z,9.70
2018-03-11T15:27:55.964Z,9.74
2018-03-11T15:30:23.724Z,9.93
2018-03-11T15:32:51.796Z,9.86
2018-03-11T15:35:19.806Z,9.97
2018-03-11T15:37:49.162Z,10.14
2018-03-11T15:40:19.286Z,9.85
2018-03-11T15:42:48.274Z,9.57
2018-03-11T15:45:17.491Z,9.17
2018-03-11T15:47:46.058Z,9.13
2018-03-11T15:50:15.619Z,9.08
2018-03-11T15:52:44.565Z,8.50
2018-03-11T15:55:12.638Z,8.65
2018-03-11T15:57:41.725Z,8.94
2018-03-11T16:00:09.593Z,9.15
2018-03-11T16:02:37.574Z,8.87
2018-03-11T16:05:06.400Z,8.52
2018-03-11T16:07:34.443Z,8.50
2018-03-11T16:10:02.297Z,8.31
2018-03-11T16:12:30.276Z,8.24
2018-03-11T16:15:00.431Z,8.36
2018-03-11T16:17:28.465Z,8.46
2018-03-11T16:19:56.169Z,8.59
2018-03-11T16:22:23.985Z,8.41
2018-03-11T16:24:52.878Z,8.43
2018-03-11T16:27:20.759Z,8.43
2018-03-11T16:29:48.798Z,8.54
2018-03-11T16:32:17.137Z,8.56
2018-03-11T16:34:45.004Z,8.15
2018-03-11T16:37:13.330Z,7.64
2018-03-11T16:39:42.537Z,7.63
2018-03-11T16:42:13.378Z,7.78
2018-03-11T16:44:41.448Z,7.88
2018-03-11T16:47:09.642Z,7.92
2018-03-11T16:49:37.635Z,8.00
2018-03-11T16:52:07.643Z,8.11
2018-03-11T16:54:35.759Z,7.93
2018-03-11T16:57:04.238Z,8.05
2018-03-11T16:59:32.010Z,8.14
2018-03-11T17:02:00.023Z,7.97
2018-03-11T17:04:27.753Z,7.72
2018-03-11T17:06:55.879Z,7.69
2018-03-11T17:09:23.602Z,7.56
2018-03-11T17:11:53.010Z,7.59
2018-03-11T17:14:21.233Z,7.82
2018-03-11T17:16:50.178Z,7.89
2018-03-11T17:19:18.692Z,7.93
2018-03-11T17:21:46.724Z,7.99
2018-03-11T17:24:14.787Z,7.95
2018-03-11T17:26:43.796Z,7.88
2018-03-11T17:29:11.880Z,7.86
2018-03-11T17:31:39.834Z,7.81
2018-03-11T17:34:07.699Z,7.38
2018-03-11T17:36:35.666Z,7.23
2018-03-11T17:39:03.841Z,7.02
2018-03-11T17:41:32.193Z,6.89
2018-03-11T17:43:59.979Z,7.14
2018-03-11T17:46:28.262Z,6.97
2018-03-11T17:48:55.909Z,7.00
2018-03-11T17:51:24.978Z,7.17
2018-03-11T17:53:52.580Z,7.26
2018-03-11T17:56:20.638Z,7.33
2018-03-11T17:58:48.462Z,7.34
2018-03-11T18:01:17.259Z,7.33
2018-03-11T18:03:45.270Z,7.00
2018-03-11T18:06:14.311Z,6.86
2018-03-11T18:08:42.123Z,7.05
2018-03-11T18:11:09.990Z,7.11
2018-03-11T18:13:38.752Z,6.94
2018-03-11T18:16:07.611Z,6.80
2018-03-11T18:18:36.155Z,6.86
2018-03-11T18:21:04.531Z,6.96
2018-03-11T18:23:32.757Z,7.00
2018-03-11T18:26:00.778Z,6.81
2018-03-11T18:28:29.465Z,6.86
2018-03-11T18:30:57.550Z,7.15
2018-03-11T18:33:25.540Z,6.92
2018-03-11T18:35:53.378Z,7.00
2018-03-11T18:38:21.813Z,7.07
2018-03-11T18:40:49.951Z,7.02
2018-03-11T18:43:18.907Z,7.09
2018-03-11T18:45:46.573Z,7.18
2018-03-11T18:48:14.850Z,7.07
2018-03-11T18:50:43.400Z,7.26
2018-03-11T18:53:17.672Z,7.04
2018-03-11T18:55:46.223Z,7.07
2018-03-11T18:58:14.009Z,7.11
2018-03-11T19:00:42.284Z,7.13
2018-03-11T19:03:10.747Z,7.21
2018-03-11T19:05:38.528Z,7.21
2018-03-11T19:08:06.621Z,7.18
2018-03-11T19:10:34.281Z,7.07
2018-03-11T19:13:02.966Z,6.93
2018-03-11T19:15:32.689Z,6.79
2018-03-11T19:18:00.752Z,6.87
2018-03-11T19:20:28.510Z,6.99
2018-03-11T19:22:56.175Z,7.18
2018-03-11T19:25:24.032Z,6.89
2018-03-11T19:27:51.702Z,6.53
2018-03-11T19:30:19.823Z,6.32
2018-03-11T19:32:47.786Z,6.36
2018-03-11T19:35:16.006Z,6.51
2018-03-11T19:37:44.818Z,6.67
2018-03-11T19:40:13.297Z,6.58
2018-03-11T19:42:42.742Z,6.82
2018-03-11T19:45:10.952Z,6.41
2018-03-11T19:47:39.009Z,6.30
2018-03-11T19:50:07.092Z,6.28
2018-03-11T19:52:34.892Z,6.23
2018-03-11T19:55:02.998Z,6.22
2018-03-11T19:57:31.678Z,6.21
2018-03-11T19:59:59.409Z,6.40
2018-03-11T20:02:28.826Z,6.53
2018-03-11T20:04:58.025Z,6.68
2018-03-11T20:07:26.254Z,6.69
2018-03-11T20:09:54.043Z,6.88
2018-03-11T20:12:21.724Z,6.66
2018-03-11T20:14:49.684Z,6.75
2018-03-11T20:17:17.537Z,6.98
2018-03-11T20:19:45.703Z,6.63
2018-03-11T20:22:14.506Z,6.32
2018-03-11T20:24:42.448Z,6.45
2018-03-11T20:27:10.962Z,6.43
2018-03-11T20:29:39.007Z,6.62
2018-03-11T20:32:07.144Z,6.72
2018-03-11T20:34:36.612Z,6.72
2018-03-11T20:37:06.084Z,6.77
2018-03-11T20:39:35.106Z,6.66
2018-03-11T20:42:03.120Z,6.18
2018-03-11T20:44:32.703Z,6.15
2018-03-11T20:47:01.634Z,6.25
2018-03-11T20:49:29.588Z,6.17
2018-03-11T20:51:59.008Z,6.28
2018-03-11T20:54:27.203Z,6.38
2018-03-11T20:56:54.881Z,6.24
2018-03-11T20:59:23.371Z,6.08
2018-03-11T21:01:51.959Z,6.03
2018-03-11T21:04:21.618Z,6.16
2018-03-11T21:06:49.536Z,6.42
2018-03-11T21:09:17.398Z,6.59
2018-03-11T21:11:45.269Z,6.32
2018-03-11T21:14:13.341Z,6.09
2018-03-11T21:16:41.618Z,6.26
2018-03-11T21:19:09.385Z,6.45
2018-03-11T21:21:37.260Z,6.46
2018-03-11T21:24:05.751Z,6.57
2018-03-11T21:26:33.857Z,6.63
2018-03-11T21:29:01.911Z,6.57
2018-03-11T21:31:30.598Z,6.54
2018-03-11T21:33:58.630Z,6.54
2018-03-11T21:36:27.069Z,6.04
2018-03-11T21:38:54.765Z,5.78
2018-03-11T21:41:22.723Z,5.75
2018-03-11T21:43:50.414Z,5.69
2018-03-11T21:46:18.172Z,5.86
2018-03-11T21:48:46.715Z,5.98
2018-03-11T21:51:14.728Z,5.90
2018-03-11T21:53:42.588Z,5.92
2018-03-11T21:56:10.549Z,5.97
2018-03-11T21:58:38.422Z,6.06
2018-03-11T22:01:06.299Z,6.10
2018-03-11T22:03:34.084Z,6.07
2018-03-11T22:06:01.925Z,6.06
2018-03-11T22:08:29.574Z,6.19
2018-03-11T22:10:57.509Z,6.24
2018-03-11T22:13:25.117Z,6.19
2018-03-11T22:15:52.770Z,5.80
2018-03-11T22:18:20.378Z,5.70
2018-03-11T22:20:48.190Z,5.95
2018-03-11T22:23:17.091Z,6.08
2018-03-11T22:25:44.772Z,6.16
2018-03-11T22:28:12.371Z,5.97
2018-03-11T22:30:40.117Z,5.83
2018-03-11T22:33:07.686Z,5.84
2018-03-11T22:35:35.825Z,5.97
2018-03-11T22:38:03.749Z,5.80
2018-03-11T22:40:31.736Z,5.54
2018-03-11T22:42:59.423Z,5.49
2018-03-11T22:45:27.286Z,5.57
2018-03-11T22:47:55.010Z,5.58
2018-03-11T22:50:22.861Z,5.54
2018-03-11T22:52:50.986Z,5.70
2018-03-11T22:55:18.968Z,5.65
2018-03-11T22:57:47.396Z,5.66
2018-03-11T23:00:15.256Z,5.76
2018-03-11T23:02:43.817Z,5.86
2018-03-11T23:05:12.361Z,6.02
2018-03-11T23:07:40.428Z,6.07
2018-03-11T23:10:09.465Z,6.03
2018-03-11T23:12:37.290Z,5.89
2018-03-11T23:15:05.176Z,5.70
2018-03-11T23:17:32.813Z,5.43
2018-03-11T23:20:00.485Z,5.58
2018-03-11T23:22:28.574Z,5.76
2018-03-11T23:24:56.320Z,5.90
2018-03-11T23:27:24.956Z,5.63
2018-03-11T23:29:52.878Z,5.39
2018-03-11T23:32:20.555Z,5.46
2018-03-11T23:34:48.934Z,5.41
2018-03-11T23:37:16.560Z,5.43
2018-03-11T23:39:44.538Z,5.41
2018-03-11T23:42:12.542Z,5.38
2018-03-11T23:44:40.429Z,5.30
2018-03-11T23:47:08.196Z,5.16
2018-03-11T23:49:36.310Z,5.13
2018-03-11T23:52:04.065Z,5.14
2018-03-11T23:54:32.056Z,5.12
2018-03-11T23:56:59.656Z,5.30
2018-03-11T23:59:28.825Z,5.58
